createdAt,value
2023-01-12T00:02:48.439Z,57.25
2023-01-12T00:06:08.011Z,63.48
2023-01-12T00:09:20.299Z,56.43
2023-01-12T00:12:32.515Z,55.63
2023-01-12T00:15:55.493Z,57.50
2023-01-12T00:19:09.520Z,41.78
2023-01-12T00:22:21.975Z,29.90
2023-01-12T00:25:34.131Z,27.93
2023-01-12T00:28:46.633Z,32.73
2023-01-12T00:32:00.760Z,31.18
2023-01-12T00:35:15.172Z,32.98
2023-01-12T00:38:29.749Z,35.60
2023-01-12T00:41:57.069Z,32.30
2023-01-12T00:45:30.149Z,35.60
2023-01-12T00:48:42.354Z,50.40
2023-01-12T00:51:54.768Z,50.18
2023-01-12T00:55:07.192Z,53.78
2023-01-12T00:58:19.391Z,52.30
2023-01-12T01:01:31.901Z,54.33
2023-01-12T01:04:44.494Z,56.45
2023-01-12T01:07:56.779Z,53.40
2023-01-12T01:11:15.434Z,47.33
2023-01-12T01:14:27.774Z,51.30
2023-01-12T01:17:40.108Z,50.00
2023-01-12T01:20:55.507Z,48.05
2023-01-12T01:24:08.253Z,44.80
2023-01-12T01:27:20.462Z,40.93
2023-01-12T01:30:32.685Z,39.90
2023-01-12T01:33:45.496Z,44.35
2023-01-12T01:36:59.287Z,44.73
2023-01-12T01:40:13.865Z,44.28
2023-01-12T01:43:29.366Z,46.90
2023-01-12T01:46:48.595Z,49.75
2023-01-12T01:50:04.207Z,47.45
2023-01-12T01:53:21.117Z,52.68
2023-01-12T01:56:37.362Z,53.50
2023-01-12T01:59:53.818Z,53.60
2023-01-12T02:03:09.463Z,57.63
2023-01-12T02:06:24.986Z,50.55
2023-01-12T02:09:37.548Z,58.55
2023-01-12T02:13:04.671Z,67.15
2023-01-12T02:16:25.856Z,70.05
2023-01-12T02:20:19.431Z,68.83
2023-01-12T02:24:06.363Z,72.78
2023-01-12T02:28:05.309Z,67.70
2023-01-12T02:31:46.860Z,65.68
2023-01-12T02:35:06.781Z,69.68
2023-01-12T02:38:24.929Z,71.63
2023-01-12T02:41:56.829Z,63.70
2023-01-12T02:45:21.234Z,71.28
2023-01-12T02:48:39.297Z,64.85
2023-01-12T02:51:56.640Z,65.33
2023-01-12T02:55:11.580Z,69.98
2023-01-12T02:58:28.104Z,55.43
2023-01-12T03:01:42.718Z,52.45
2023-01-12T03:04:55.596Z,53.28
2023-01-12T03:08:10.234Z,56.30
2023-01-12T03:11:25.267Z,54.63
2023-01-12T03:14:40.060Z,54.18
2023-01-12T03:17:56.924Z,55.25
2023-01-12T03:21:16.097Z,50.95
2023-01-12T03:24:33.232Z,49.38
2023-01-12T03:27:49.063Z,50.88
2023-01-12T03:31:05.759Z,50.18
2023-01-12T03:34:18.383Z,55.05
2023-01-12T03:37:35.725Z,54.25
2023-01-12T03:40:53.302Z,53.25
2023-01-12T03:44:12.842Z,54.93
2023-01-12T03:47:29.841Z,57.25
2023-01-12T03:50:48.719Z,57.63
2023-01-12T03:54:04.522Z,57.45
2023-01-12T03:57:20.031Z,58.75
2023-01-12T04:00:36.796Z,60.65
2023-01-12T04:03:49.148Z,59.85
2023-01-12T04:07:01.909Z,61.88
2023-01-12T04:10:16.534Z,66.80
2023-01-12T04:13:28.795Z,68.33
2023-01-12T04:16:41.016Z,69.05
2023-01-12T04:19:53.259Z,70.25
2023-01-12T04:23:05.446Z,64.30
2023-01-12T04:26:20.509Z,62.50
2023-01-12T04:29:32.958Z,63.68
2023-01-12T04:32:45.215Z,48.85
2023-01-12T04:35:57.041Z,37.85
2023-01-12T04:39:09.757Z,38.48
2023-01-12T04:42:36.447Z,37.03
2023-01-12T04:45:48.851Z,33.93
2023-01-12T04:49:01.015Z,36.30
2023-01-12T04:52:13.049Z,33.45
2023-01-12T04:55:25.272Z,36.20
2023-01-12T04:58:37.344Z,37.88
2023-01-12T05:01:49.694Z,31.23
2023-01-12T05:05:01.930Z,35.40
2023-01-12T05:08:30.154Z,34.25
2023-01-12T05:11:42.521Z,31.00
2023-01-12T05:14:57.936Z,31.13
2023-01-12T05:18:10.293Z,32.78
2023-01-12T05:21:23.640Z,34.00
2023-01-12T05:24:35.536Z,33.38
2023-01-12T05:27:47.742Z,34.05
2023-01-12T05:31:00.012Z,36.85
2023-01-12T05:34:11.945Z,36.80
2023-01-12T05:37:24.204Z,43.05
2023-01-12T05:40:36.133Z,42.75
2023-01-12T05:43:55.059Z,40.83
2023-01-12T05:47:07.273Z,33.28
2023-01-12T05:50:19.960Z,37.03
2023-01-12T05:53:34.750Z,36.60
2023-01-12T05:56:49.727Z,36.60
2023-01-12T06:00:01.225Z,34.33
2023-01-12T06:03:13.633Z,38.33
2023-01-12T06:06:27.947Z,34.18
2023-01-12T06:09:40.155Z,39.70
2023-01-12T06:13:09.640Z,35.23
2023-01-12T06:16:21.970Z,39.23
2023-01-12T06:19:34.638Z,36.60
2023-01-12T06:22:46.520Z,35.73
2023-01-12T06:25:58.426Z,32.45
2023-01-12T06:29:10.889Z,34.00
2023-01-12T06:32:22.726Z,33.58
2023-01-12T06:35:35.012Z,35.43
2023-01-12T06:38:47.320Z,38.75
2023-01-12T06:42:13.891Z,35.75
2023-01-12T06:45:26.231Z,32.63
2023-01-12T06:48:39.217Z,34.58
2023-01-12T06:51:53.240Z,42.68
2023-01-12T06:55:05.063Z,36.18
2023-01-12T06:58:16.859Z,35.25
2023-01-12T07:01:29.072Z,41.75
2023-01-12T07:04:41.073Z,42.35
2023-01-12T07:07:53.514Z,60.90
2023-01-12T07:11:08.466Z,51.15
2023-01-12T07:14:20.266Z,50.90
2023-01-12T07:17:32.479Z,52.58
2023-01-12T07:20:45.661Z,60.98
2023-01-12T07:23:57.762Z,65.40
2023-01-12T07:27:10.290Z,54.80
2023-01-12T07:30:23.156Z,53.48
2023-01-12T07:33:37.489Z,47.93
2023-01-12T07:36:50.066Z,54.50
2023-01-12T07:43:09.468Z,57.95
2023-01-12T07:46:22.411Z,84.10
2023-01-12T07:49:35.164Z,51.58
2023-01-12T07:52:47.736Z,37.43
2023-01-12T07:56:02.167Z,37.30
2023-01-12T08:02:19.643Z,36.93
2023-01-12T08:05:33.745Z,39.53
2023-01-12T08:08:46.380Z,46.50
2023-01-12T08:11:58.680Z,43.13
2023-01-12T08:15:13.198Z,40.88
2023-01-12T08:18:30.243Z,43.70
2023-01-12T08:24:47.539Z,43.08
2023-01-12T08:28:02.283Z,156.18
2023-01-12T08:34:17.133Z,49.80
2023-01-12T08:37:31.660Z,37.83
2023-01-12T08:40:59.784Z,39.85
2023-01-12T08:44:15.373Z,44.05
2023-01-12T08:47:31.817Z,40.90
2023-01-12T08:50:44.176Z,40.50
2023-01-12T08:56:58.906Z,51.73
2023-01-12T09:00:14.711Z,56.45
2023-01-12T09:03:26.921Z,79.40
2023-01-12T09:06:42.378Z,48.10
2023-01-12T09:09:54.377Z,36.68
2023-01-12T09:13:07.433Z,42.68
2023-01-12T09:16:23.234Z,39.15
2023-01-12T09:19:36.011Z,45.10
2023-01-12T09:22:48.593Z,42.23
2023-01-12T09:26:05.625Z,35.90
2023-01-12T09:29:19.677Z,45.05
2023-01-12T09:32:36.897Z,45.35
2023-01-12T09:35:47.865Z,43.33
2023-01-12T09:39:01.637Z,48.10
2023-01-12T09:42:43.948Z,62.73
2023-01-12T09:45:51.560Z,24.50
2023-01-12T09:49:04.288Z,33.83
2023-01-12T09:52:22.759Z,11.18
2023-01-12T09:55:40.023Z,5.40
2023-01-12T09:59:13.828Z,6.43
2023-01-12T10:02:26.089Z,5.73
2023-01-12T10:05:47.243Z,6.15
2023-01-12T10:09:01.937Z,8.60
2023-01-12T10:12:24.215Z,5.45
2023-01-12T10:15:47.235Z,4.80
2023-01-12T10:19:03.681Z,7.45
2023-01-12T10:22:27.924Z,4.43
2023-01-12T10:25:44.468Z,5.05
2023-01-12T10:29:02.383Z,5.83
2023-01-12T10:32:17.370Z,4.30
2023-01-12T10:35:31.229Z,9.68
2023-01-12T10:38:47.729Z,6.18
2023-01-12T10:42:40.460Z,5.38
2023-01-12T10:46:08.432Z,6.13
2023-01-12T10:49:28.734Z,6.30
2023-01-12T10:52:44.881Z,6.35
2023-01-12T10:55:57.324Z,5.10
2023-01-12T10:59:19.591Z,7.43
2023-01-12T11:02:36.392Z,7.90
2023-01-12T11:08:59.405Z,3.75
2023-01-12T11:12:24.392Z,8.50
2023-01-12T11:15:40.006Z,7.08
2023-01-12T11:18:57.731Z,5.58
2023-01-12T11:22:17.030Z,7.33
2023-01-12T11:25:32.578Z,6.13
2023-01-12T11:28:49.546Z,7.65
2023-01-12T11:32:08.446Z,7.08
2023-01-12T11:35:35.388Z,5.73
2023-01-12T11:38:52.429Z,8.40
2023-01-12T11:42:23.502Z,4.83
2023-01-12T11:45:42.266Z,5.85
2023-01-12T11:49:08.048Z,7.05
2023-01-12T11:52:24.288Z,6.53
2023-01-12T11:55:53.557Z,4.93
2023-01-12T11:59:12.306Z,4.15
2023-01-12T12:02:38.328Z,3.73
2023-01-12T12:05:56.417Z,6.90
2023-01-12T12:09:30.722Z,7.73
2023-01-12T12:12:51.715Z,8.43
2023-01-12T12:16:22.965Z,5.85
2023-01-12T12:19:44.840Z,4.10
2023-01-12T12:23:10.036Z,7.68
2023-01-12T12:26:27.934Z,10.53
2023-01-12T12:29:53.885Z,12.35
2023-01-12T12:33:12.398Z,13.35
2023-01-12T12:36:31.123Z,11.93
2023-01-12T12:39:59.728Z,9.75
2023-01-12T12:43:31.346Z,7.83
2023-01-12T12:46:49.808Z,6.45
2023-01-12T12:50:04.836Z,7.95
2023-01-12T12:53:28.298Z,5.85
2023-01-12T12:56:42.157Z,10.45
2023-01-12T13:00:04.241Z,7.80
2023-01-12T13:03:17.010Z,6.53
2023-01-12T13:06:32.332Z,4.95
2023-01-12T13:09:51.852Z,4.83
2023-01-12T13:13:36.529Z,8.10
2023-01-12T13:16:56.209Z,8.88
2023-01-12T13:20:41.711Z,7.30
2023-01-12T13:23:58.776Z,5.98
2023-01-12T13:27:35.035Z,7.18
2023-01-12T13:30:59.204Z,5.68
2023-01-12T13:34:47.113Z,7.20
2023-01-12T13:38:04.964Z,6.08
2023-01-12T13:41:43.527Z,5.38
2023-01-12T13:44:57.128Z,7.18
2023-01-12T13:48:11.592Z,6.30
2023-01-12T13:51:28.461Z,7.15
2023-01-12T13:54:43.346Z,8.55
2023-01-12T13:58:07.940Z,5.95
2023-01-12T14:01:27.179Z,7.00
2023-01-12T14:05:07.188Z,17.08
2023-01-12T14:08:51.086Z,11.85
2023-01-12T14:12:22.667Z,10.55
2023-01-12T14:15:57.279Z,6.38
2023-01-12T14:19:31.227Z,7.58
2023-01-12T14:22:43.640Z,5.90
2023-01-12T14:26:21.657Z,20.85
2023-01-12T14:29:33.462Z,8.20
2023-01-12T14:32:48.335Z,6.95
2023-01-12T14:36:05.723Z,10.03
2023-01-12T15:03:57.546Z,7.93
2023-01-12T15:41:25.798Z,13.98
2023-01-12T15:44:39.605Z,14.30
2023-01-12T15:47:52.916Z,15.78
2023-01-12T15:51:05.101Z,17.83
2023-01-12T15:54:19.982Z,17.63
2023-01-12T16:37:45.491Z,18.78
2023-01-12T16:53:18.313Z,20.85
2023-01-12T16:56:33.558Z,24.63
2023-01-12T16:59:46.066Z,25.40
2023-01-12T17:02:58.166Z,22.35
2023-01-12T17:06:15.847Z,23.65
2023-01-12T17:12:28.051Z,19.73
2023-01-12T17:15:41.209Z,20.18
2023-01-12T17:21:55.008Z,22.43
2023-01-12T17:25:07.427Z,20.40
2023-01-12T17:28:19.289Z,20.83
2023-01-12T17:31:31.763Z,17.40
2023-01-12T17:34:48.176Z,19.23
2023-01-12T17:38:00.294Z,20.37
2023-01-12T17:41:20.264Z,17.08
2023-01-12T17:44:32.417Z,18.25
2023-01-12T17:47:47.599Z,17.13
2023-01-12T17:50:59.604Z,24.15
2023-01-12T17:54:16.831Z,22.75
2023-01-12T17:57:29.953Z,20.85
2023-01-12T18:00:42.391Z,25.13
2023-01-12T18:03:54.864Z,22.25
2023-01-12T18:07:07.100Z,22.08
2023-01-12T18:10:20.839Z,24.83
2023-01-12T18:13:33.090Z,24.83
2023-01-12T18:16:45.324Z,23.50
2023-01-12T18:19:58.790Z,29.90
2023-01-12T18:23:10.786Z,24.90
2023-01-12T18:26:27.166Z,26.10
2023-01-12T18:29:39.778Z,23.88
2023-01-12T18:32:51.847Z,29.08
2023-01-12T18:36:04.120Z,25.38
2023-01-12T18:39:20.626Z,29.68
2023-01-12T18:42:47.408Z,27.33
2023-01-12T18:45:59.398Z,40.85
2023-01-12T18:49:11.384Z,24.50
2023-01-12T18:52:44.122Z,27.68
2023-01-12T18:55:57.407Z,24.05
2023-01-12T18:59:09.750Z,24.38
2023-01-12T19:02:24.012Z,22.30
2023-01-12T19:05:41.581Z,21.55
2023-01-12T19:09:08.758Z,25.28
2023-01-12T19:12:20.714Z,22.93
2023-01-12T19:15:47.284Z,18.50
2023-01-12T19:18:59.467Z,20.87
2023-01-12T19:22:25.973Z,18.78
2023-01-12T19:25:52.203Z,20.05
2023-01-12T19:29:04.121Z,21.28
2023-01-12T19:32:16.420Z,18.38
2023-01-12T19:35:28.391Z,20.75
2023-01-12T19:38:43.101Z,21.30
2023-01-12T19:42:09.904Z,19.95
2023-01-12T19:45:22.783Z,19.63
2023-01-12T19:48:35.975Z,25.88
2023-01-12T19:51:50.815Z,24.53
2023-01-12T19:55:03.142Z,22.05
2023-01-12T19:58:16.425Z,16.13
2023-01-12T20:01:30.834Z,16.90
2023-01-12T20:04:43.515Z,20.45
2023-01-12T20:07:57.917Z,19.20
2023-01-12T20:11:11.216Z,17.95
2023-01-12T20:14:23.572Z,20.85
2023-01-12T20:55:21.209Z,12.83
2023-01-12T20:58:33.656Z,14.10
2023-01-12T21:01:49.013Z,12.70
2023-01-12T21:17:12.469Z,10.50
2023-01-12T21:38:49.466Z,10.90
2023-01-12T21:42:15.867Z,13.78
2023-01-12T21:45:27.767Z,16.18
2023-01-12T21:48:40.101Z,13.43
2023-01-12T21:51:52.145Z,11.68
2023-01-12T21:55:04.077Z,11.40
2023-01-12T21:58:16.290Z,12.10
2023-01-12T22:01:28.387Z,9.85
2023-01-12T22:04:40.644Z,14.60
2023-01-12T22:07:54.805Z,13.40
2023-01-12T22:29:37.074Z,13.50
2023-01-12T22:32:49.433Z,12.05
2023-01-12T22:36:01.299Z,12.65
2023-01-12T22:39:13.436Z,12.25
2023-01-12T22:42:27.998Z,13.80
2023-01-12T22:45:41.254Z,12.38
2023-01-12T22:48:55.891Z,14.58
2023-01-12T22:52:10.002Z,12.13
2023-01-12T22:55:22.332Z,14.45
2023-01-12T22:58:34.727Z,12.08
2023-01-12T23:01:46.574Z,15.20
2023-01-12T23:04:58.675Z,14.63
2023-01-12T23:32:43.522Z,11.55
2023-01-12T23:41:55.959Z,11.10
